createdAt,value
2022-08-03T00:01:55.222Z,97922.13
2022-08-03T00:04:58.249Z,97922.50
2022-08-03T00:08:01.541Z,97925.22
2022-08-03T00:11:08.587Z,97926.19
2022-08-03T00:14:11.957Z,97919.34
2022-08-03T00:17:14.550Z,97919.06
2022-08-03T00:20:16.691Z,97921.19
2022-08-03T00:23:18.724Z,97925.81
2022-08-03T00:26:23.790Z,97925.13
2022-08-03T00:29:26.072Z,97926.94
2022-08-03T00:32:28.273Z,97924.00
2022-08-03T00:35:37.001Z,97922.00
2022-08-03T00:38:52.607Z,97917.00
2022-08-03T00:41:54.613Z,97918.28
2022-08-03T00:44:56.628Z,97925.16
2022-08-03T00:48:00.090Z,97921.56
2022-08-03T00:51:02.754Z,97921.19
2022-08-03T00:54:05.188Z,97924.34
2022-08-03T00:57:07.898Z,97922.66
2022-08-03T01:00:12.472Z,97914.84
2022-08-03T01:03:14.461Z,97923.66
2022-08-03T01:06:19.895Z,97922.22
2022-08-03T01:09:39.913Z,97928.84
2022-08-03T01:12:46.531Z,97930.13
2022-08-03T01:15:48.435Z,97921.16
2022-08-03T01:19:02.659Z,97926.38
2022-08-03T01:22:41.413Z,97922.91
2022-08-03T01:26:06.216Z,97912.56
2022-08-03T01:29:30.052Z,97912.56
2022-08-03T01:33:00.579Z,97912.25
2022-08-03T01:36:13.182Z,97914.75
2022-08-03T01:39:17.075Z,97912.97
2022-08-03T01:42:21.885Z,97905.84
2022-08-03T01:45:24.955Z,97908.88
2022-08-03T01:48:28.197Z,97907.19
2022-08-03T01:52:03.161Z,97911.28
2022-08-03T01:54:55.833Z,97905.00
2022-08-03T01:58:05.655Z,97909.75
2022-08-03T02:01:10.472Z,97900.41
2022-08-03T02:04:15.648Z,97901.69
2022-08-03T02:07:18.538Z,97896.38
2022-08-03T02:10:34.371Z,97903.78
2022-08-03T02:13:39.745Z,97898.91
2022-08-03T02:16:45.476Z,97888.69
2022-08-03T02:19:48.435Z,97894.00
2022-08-03T02:22:50.466Z,97894.69
2022-08-03T02:25:57.979Z,97893.72
2022-08-03T02:29:07.146Z,97890.94
2022-08-03T02:32:16.757Z,97896.78
2022-08-03T02:35:22.626Z,97891.78
2022-08-03T02:38:31.591Z,97891.94
2022-08-03T02:41:38.402Z,97890.09
2022-08-03T02:44:47.850Z,97892.34
2022-08-03T02:47:54.017Z,97899.59
2022-08-03T02:51:00.133Z,97897.91
2022-08-03T02:54:04.057Z,97889.38
2022-08-03T02:57:09.689Z,97904.06
2022-08-03T03:00:13.239Z,97903.22
2022-08-03T03:03:35.297Z,97900.03
2022-08-03T03:06:47.173Z,97906.59
2022-08-03T03:09:51.109Z,97907.16
2022-08-03T03:12:56.277Z,97909.94
2022-08-03T03:16:05.109Z,97903.94
2022-08-03T03:19:17.052Z,97907.72
2022-08-03T03:22:22.686Z,97912.75
2022-08-03T03:25:25.195Z,97905.78
2022-08-03T03:28:27.517Z,97913.31
2022-08-03T03:31:29.868Z,97914.16
2022-08-03T03:34:32.328Z,97917.94
2022-08-03T03:37:35.366Z,97921.81
2022-08-03T03:40:38.305Z,97918.47
2022-08-03T03:43:40.477Z,97920.28
2022-08-03T03:46:42.848Z,97926.72
2022-08-03T03:49:45.560Z,97922.50
2022-08-03T03:52:47.568Z,97923.78
2022-08-03T03:55:58.984Z,97921.97
2022-08-03T03:59:04.902Z,97926.44
2022-08-03T04:02:09.272Z,97928.53
2022-08-03T04:05:30.387Z,97926.16
2022-08-03T04:08:50.806Z,97933.97
2022-08-03T04:11:58.759Z,97931.75
2022-08-03T04:15:02.641Z,97929.78
2022-08-03T04:18:06.731Z,97932.88
2022-08-03T04:21:12.853Z,97938.19
2022-08-03T04:24:15.910Z,97940.16
2022-08-03T04:27:23.497Z,97942.22
2022-08-03T04:30:28.563Z,97944.34
2022-08-03T04:33:34.905Z,97937.94
2022-08-03T04:36:44.970Z,97950.50
2022-08-03T04:39:50.054Z,97950.91
2022-08-03T04:42:55.965Z,97946.56
2022-08-03T04:45:59.763Z,97947.56
2022-08-03T04:49:02.597Z,97947.13
2022-08-03T04:52:07.589Z,97950.78
2022-08-03T04:55:09.826Z,97949.94
2022-08-03T04:58:12.746Z,97954.41
2022-08-03T05:01:16.070Z,97952.59
2022-08-03T05:04:18.579Z,97953.28
2022-08-03T05:07:24.864Z,97957.63
2022-08-03T05:10:27.355Z,97954.25
2022-08-03T05:13:29.366Z,97958.19
2022-08-03T05:16:31.562Z,97961.09
2022-08-03T05:19:33.631Z,97952.41
2022-08-03T05:22:35.725Z,97953.81
2022-08-03T05:25:37.769Z,97964.16
2022-08-03T05:28:50.816Z,97966.66
2022-08-03T05:31:57.501Z,97962.88
2022-08-03T05:35:00.423Z,97960.06
2022-08-03T05:38:28.165Z,97970.25
2022-08-03T05:41:37.071Z,97964.09
2022-08-03T05:44:39.646Z,97969.13
2022-08-03T05:47:44.381Z,97965.59
2022-08-03T05:50:46.426Z,97968.34
2022-08-03T05:53:48.403Z,97969.47
2022-08-03T05:56:50.682Z,97967.91
2022-08-03T05:59:54.792Z,97963.38
2022-08-03T06:03:00.923Z,97965.31
2022-08-03T06:06:03.007Z,97963.75
2022-08-03T06:09:05.198Z,97960.78
2022-08-03T06:12:10.089Z,97959.22
2022-08-03T06:15:16.718Z,97959.19
2022-08-03T06:18:18.871Z,97958.09
2022-08-03T06:21:20.845Z,97961.53
2022-08-03T06:24:25.105Z,97957.81
2022-08-03T06:27:36.849Z,97967.13
2022-08-03T06:30:39.936Z,97961.41
2022-08-03T06:34:30.907Z,97960.69
2022-08-03T06:37:03.992Z,97965.19
2022-08-03T06:40:07.762Z,97968.50
2022-08-03T06:43:12.492Z,97962.81
2022-08-03T06:46:14.872Z,97964.94
2022-08-03T06:49:17.162Z,97972.44
2022-08-03T06:52:37.189Z,97967.41
2022-08-03T06:55:42.311Z,97969.63
2022-08-03T06:58:44.629Z,97963.19
2022-08-03T07:01:52.874Z,97972.84
2022-08-03T07:04:54.969Z,97968.78
2022-08-03T07:08:02.047Z,97968.16
2022-08-03T07:11:04.096Z,97960.91
2022-08-03T07:14:06.520Z,97974.06
2022-08-03T07:17:11.718Z,97972.50
2022-08-03T07:20:15.394Z,97966.22
2022-08-03T07:23:19.319Z,97969.13
2022-08-03T07:26:21.606Z,97969.28
2022-08-03T07:29:23.677Z,97960.56
2022-08-03T07:32:26.525Z,97963.41
2022-08-03T07:35:28.494Z,97958.50
2022-08-03T07:38:30.508Z,97960.50
2022-08-03T07:41:32.644Z,97959.16
2022-08-03T07:44:34.769Z,97952.44
2022-08-03T07:47:36.798Z,97950.88
2022-08-03T07:50:38.775Z,97949.97
2022-08-03T07:53:45.983Z,97955.91
2022-08-03T07:56:49.800Z,97944.16
2022-08-03T08:00:01.717Z,97950.44
2022-08-03T08:03:13.965Z,97945.78
2022-08-03T08:06:16.499Z,97948.22
2022-08-03T08:09:18.473Z,97953.38
2022-08-03T08:12:20.651Z,97951.34
2022-08-03T08:15:23.140Z,97953.50
2022-08-03T08:18:25.324Z,97953.69
2022-08-03T08:21:53.262Z,97949.97
2022-08-03T08:24:49.394Z,97954.13
2022-08-03T08:28:31.450Z,97946.84
2022-08-03T08:31:15.995Z,97947.38
2022-08-03T08:34:18.038Z,97947.53
2022-08-03T08:37:20.065Z,97947.91
2022-08-03T08:40:23.091Z,97943.44
2022-08-03T08:43:25.161Z,97950.41
2022-08-03T08:46:27.747Z,97942.97
2022-08-03T08:49:33.137Z,97951.38
2022-08-03T08:52:35.927Z,97943.16
2022-08-03T08:55:56.932Z,97957.53
2022-08-03T08:59:02.972Z,97950.78
2022-08-03T10:01:56.933Z,97919.25
2022-08-03T10:04:58.913Z,97911.34
2022-08-03T10:08:01.129Z,97917.97
2022-08-03T10:11:03.129Z,97916.66
2022-08-03T10:14:06.829Z,97913.63
2022-08-03T10:17:09.890Z,97906.19
2022-08-03T10:20:12.382Z,97907.97
2022-08-03T10:23:17.054Z,97900.03
2022-08-03T10:26:22.881Z,97898.63
2022-08-03T10:29:28.544Z,97885.72
2022-08-03T10:32:52.594Z,97894.06
2022-08-03T10:35:59.518Z,97890.97
2022-08-03T10:39:02.949Z,97893.94
2022-08-03T10:42:18.164Z,97893.44
2022-08-03T10:45:24.212Z,97881.72
2022-08-03T10:48:26.804Z,97880.69
2022-08-03T10:51:32.387Z,97882.19
2022-08-03T10:54:37.437Z,97870.75
2022-08-03T10:57:46.484Z,97873.78
2022-08-03T11:00:51.307Z,97869.59
2022-08-03T11:03:53.317Z,97863.09
2022-08-03T11:07:25.345Z,97865.88
2022-08-03T11:10:32.007Z,97858.97
2022-08-03T11:13:34.213Z,97855.19
2022-08-03T11:16:38.951Z,97854.19
2022-08-03T11:19:57.023Z,97861.66
2022-08-03T11:23:01.793Z,97862.13
2022-08-03T11:26:22.745Z,97851.41
2022-08-03T11:29:31.391Z,97855.72
2022-08-03T11:32:46.857Z,97850.56
2022-08-03T11:36:02.988Z,97851.13
2022-08-03T11:39:16.678Z,97844.97
2022-08-03T11:42:24.782Z,97841.94
2022-08-03T11:45:27.209Z,97843.00
2022-08-03T11:48:38.390Z,97835.31
2022-08-03T11:51:41.057Z,97842.63
2022-08-03T11:54:43.918Z,97843.41
2022-08-03T11:59:00.904Z,97835.38
2022-08-03T12:01:12.550Z,97830.28
2022-08-03T12:04:16.519Z,97828.81
2022-08-03T12:08:02.264Z,97829.59
2022-08-03T12:10:47.747Z,97838.38
2022-08-03T12:14:44.170Z,97824.53
2022-08-03T12:17:13.362Z,97831.44
2022-08-03T12:20:31.554Z,97827.03
2022-08-03T12:23:38.368Z,97817.84
2022-08-03T12:26:58.459Z,97815.53
2022-08-03T12:30:02.478Z,97814.91
2022-08-03T12:33:14.925Z,97813.34
2022-08-03T12:36:17.301Z,97795.78
2022-08-03T12:39:23.951Z,97796.81
2022-08-03T12:42:36.820Z,97802.84
2022-08-03T12:45:38.895Z,97792.59
2022-08-03T12:49:00.517Z,97797.84
2022-08-03T12:52:07.027Z,97793.97
2022-08-03T12:55:21.831Z,97783.72
2022-08-03T12:58:34.697Z,97783.81
2022-08-03T13:01:55.305Z,97779.81
2022-08-03T13:04:58.128Z,97783.72
2022-08-03T13:08:00.220Z,97783.19
2022-08-03T13:11:22.383Z,97775.56
2022-08-03T13:14:24.403Z,97785.44
2022-08-03T13:17:27.515Z,97785.66
2022-08-03T13:20:29.620Z,97781.34
2022-08-03T13:23:31.645Z,97769.03
2022-08-03T13:26:33.559Z,97770.56
2022-08-03T13:29:35.768Z,97760.31
2022-08-03T13:32:37.769Z,97765.13
2022-08-03T13:35:39.771Z,97766.38
2022-08-03T13:38:41.801Z,97758.81
2022-08-03T13:41:44.649Z,97757.28
2022-08-03T13:44:46.694Z,97759.56
2022-08-03T13:47:49.730Z,97764.94
2022-08-03T13:50:51.742Z,97756.59
2022-08-03T13:53:53.864Z,97755.28
2022-08-03T13:57:00.368Z,97740.00
2022-08-03T14:00:27.895Z,97736.31
2022-08-03T14:03:30.820Z,97740.94
2022-08-03T14:06:33.040Z,97724.22
2022-08-03T14:09:35.137Z,97732.72
2022-08-03T14:12:37.123Z,97738.25
2022-08-03T14:15:39.188Z,97735.25
2022-08-03T14:18:42.551Z,97731.00
2022-08-03T14:21:46.275Z,97730.97
2022-08-03T14:25:04.148Z,97732.38
2022-08-03T14:28:06.132Z,97735.84
2022-08-03T14:32:09.097Z,97726.41
2022-08-03T14:34:30.371Z,97729.31
2022-08-03T14:37:33.810Z,97716.44
2022-08-03T14:40:35.978Z,97719.09
2022-08-03T14:43:37.981Z,97712.44
2022-08-03T14:46:39.992Z,97711.63
2022-08-03T14:50:38.879Z,97712.00
2022-08-03T14:53:04.992Z,97709.31
2022-08-03T14:56:10.375Z,97710.59
2022-08-03T14:59:12.823Z,97717.09
2022-08-03T15:52:56.209Z,97680.72
2022-08-03T15:55:59.824Z,97687.75
2022-08-03T15:59:12.044Z,97693.34
2022-08-03T16:02:16.128Z,97689.47
2022-08-03T16:05:18.263Z,97684.03
2022-08-03T16:08:20.552Z,97677.88
2022-08-03T16:11:22.675Z,97683.16
2022-08-03T16:14:34.235Z,97671.75
2022-08-03T16:17:41.092Z,97675.84
2022-08-03T16:20:45.122Z,97675.53
2022-08-03T16:23:47.796Z,97674.63
2022-08-03T16:26:50.141Z,97667.88
2022-08-03T16:29:52.402Z,97671.56
2022-08-03T16:32:54.527Z,97661.72
2022-08-03T16:35:56.669Z,97666.72
2022-08-03T16:38:58.741Z,97666.72
2022-08-03T16:42:03.553Z,97675.56
2022-08-03T16:45:07.638Z,97677.59
2022-08-03T16:48:09.883Z,97670.63
2022-08-03T16:51:11.915Z,97686.50
2022-08-03T16:54:15.681Z,97684.47
2022-08-03T16:57:55.999Z,97689.16
2022-08-03T17:00:43.305Z,97684.53
2022-08-03T17:03:57.383Z,97684.31
2022-08-03T17:07:07.188Z,97688.59
2022-08-03T17:10:12.484Z,97689.91
2022-08-03T17:13:21.846Z,97688.47
2022-08-03T17:16:24.690Z,97694.56
2022-08-03T17:19:29.717Z,97698.59
2022-08-03T17:22:34.793Z,97705.72
2022-08-03T17:25:39.867Z,97707.28
2022-08-03T17:29:12.655Z,97708.56
2022-08-03T17:32:21.613Z,97712.31
2022-08-03T17:35:23.979Z,97709.75
2022-08-03T17:38:26.602Z,97715.91
2022-08-03T17:41:34.051Z,97723.56
2022-08-03T17:47:58.739Z,97721.56
2022-08-03T17:51:07.849Z,97725.38
2022-08-03T17:54:24.149Z,97719.00
2022-08-03T17:57:29.153Z,97723.28
2022-08-03T18:01:59.613Z,97729.72
2022-08-03T18:04:44.327Z,97726.16
2022-08-03T18:08:02.486Z,97725.88
2022-08-03T18:11:09.746Z,97733.13
2022-08-03T18:14:27.704Z,97729.53
2022-08-03T18:17:54.714Z,97734.06
2022-08-03T18:21:01.165Z,97738.06
2022-08-03T18:24:07.895Z,97741.25
2022-08-03T18:27:16.186Z,97744.50
2022-08-03T18:30:21.783Z,97751.69
2022-08-03T18:34:18.323Z,97746.75
2022-08-03T18:36:55.939Z,97758.06
2022-08-03T18:39:58.512Z,97761.66
2022-08-03T18:43:08.879Z,97754.94
2022-08-03T18:46:48.144Z,97757.94
2022-08-03T18:50:19.255Z,97768.81
2022-08-03T18:54:03.010Z,97771.28
2022-08-03T18:57:07.616Z,97768.00
2022-08-03T19:00:24.279Z,97774.97
2022-08-03T19:03:43.583Z,97779.69
2022-08-03T19:06:48.843Z,97782.84
2022-08-03T19:09:56.162Z,97780.81
2022-08-03T19:13:31.024Z,97783.50
2022-08-03T19:16:41.883Z,97781.44
2022-08-03T19:19:48.123Z,97785.59
2022-08-03T19:22:52.394Z,97786.34
2022-08-03T19:25:56.898Z,97784.59
2022-08-03T19:28:59.486Z,97789.31
2022-08-03T19:32:02.897Z,97789.38
2022-08-03T19:35:13.345Z,97796.78
2022-08-03T19:38:28.374Z,97785.13
2022-08-03T19:41:42.335Z,97785.88
2022-08-03T19:44:50.579Z,97787.53
2022-08-03T19:48:08.033Z,97786.91
2022-08-03T19:51:12.383Z,97794.69
2022-08-03T19:54:16.320Z,97793.75
2022-08-03T19:57:22.861Z,97796.63
2022-08-03T20:00:34.055Z,97795.16
2022-08-03T20:03:43.423Z,97797.19
2022-08-03T20:06:47.448Z,97799.41
2022-08-03T20:09:54.591Z,97793.09
2022-08-03T20:12:59.899Z,97792.56
2022-08-03T20:16:02.384Z,97792.91
2022-08-03T20:19:05.326Z,97796.13
2022-08-03T20:22:16.692Z,97796.50
2022-08-03T20:25:25.260Z,97799.09
2022-08-03T20:29:09.235Z,97800.25
2022-08-03T20:32:13.136Z,97803.94
2022-08-03T20:35:15.336Z,97799.22
2022-08-03T20:38:19.652Z,97794.59
2022-08-03T20:41:22.478Z,97797.59
2022-08-03T20:44:25.737Z,97801.44
2022-08-03T20:47:29.618Z,97794.81
2022-08-03T20:50:35.047Z,97791.97
2022-08-03T21:13:04.699Z,97713.06
2022-08-03T21:53:10.870Z,97820.00
2022-08-03T21:56:16.021Z,97819.00
2022-08-03T21:59:20.185Z,97820.47
2022-08-03T22:02:27.812Z,97815.34
2022-08-03T22:05:43.482Z,97822.13
2022-08-03T22:08:47.555Z,97812.09
2022-08-03T22:11:54.308Z,97816.22
2022-08-03T22:15:01.526Z,97814.03
2022-08-03T22:18:04.948Z,97823.00
2022-08-03T22:21:09.352Z,97826.78
2022-08-03T22:24:11.796Z,97819.53
2022-08-03T22:27:32.142Z,97823.19
2022-08-03T22:30:35.242Z,97821.72
2022-08-03T22:33:38.626Z,97825.09
2022-08-03T22:36:40.849Z,97823.63
2022-08-03T22:39:43.994Z,97828.94
2022-08-03T22:42:49.513Z,97826.72
2022-08-03T22:46:10.540Z,97827.22
2022-08-03T22:49:15.352Z,97832.16
2022-08-03T23:55:52.504Z,97805.63
2022-08-03T23:59:26.996Z,97805.25
